sensor_id;sensor_type;location;lat;lon;timestamp;P1;durP1;ratioP1;P2;durP2;ratioP2
13443;SDS011;6794;59.218;18.218;2022-10-16T00:01:52;19.27;;;13.63;;
13443;SDS011;6794;59.218;18.218;2022-10-16T00:04:18;21.33;;;14.90;;
13443;SDS011;6794;59.218;18.218;2022-10-16T00:06:44;22.30;;;15.10;;
13443;SDS011;6794;59.218;18.218;2022-10-16T00:09:10;22.90;;;14.43;;
13443;SDS011;6794;59.218;18.218;2022-10-16T00:11:37;24.53;;;14.67;;
13443;SDS011;6794;59.218;18.218;2022-10-16T00:14:05;17.90;;;12.43;;
13443;SDS011;6794;59.218;18.218;2022-10-16T00:16:31;19.10;;;13.40;;
13443;SDS011;6794;59.218;18.218;2022-10-16T00:18:57;19.73;;;14.27;;
13443;SDS011;6794;59.218;18.218;2022-10-16T00:21:25;21.73;;;14.33;;
13443;SDS011;6794;59.218;18.218;2022-10-16T00:23:58;18.03;;;13.30;;
13443;SDS011;6794;59.218;18.218;2022-10-16T00:26:25;18.27;;;14.07;;
13443;SDS011;6794;59.218;18.218;2022-10-16T00:28:51;18.47;;;12.90;;
13443;SDS011;6794;59.218;18.218;2022-10-16T00:31:18;19.33;;;13.17;;
13443;SDS011;6794;59.218;18.218;2022-10-16T00:33:44;15.97;;;12.60;;
13443;SDS011;6794;59.218;18.218;2022-10-16T00:36:12;19.13;;;13.57;;
13443;SDS011;6794;59.218;18.218;2022-10-16T00:38:38;16.40;;;12.70;;
13443;SDS011;6794;59.218;18.218;2022-10-16T00:41:09;20.07;;;12.77;;
13443;SDS011;6794;59.218;18.218;2022-10-16T00:43:43;21.17;;;12.30;;
13443;SDS011;6794;59.218;18.218;2022-10-16T00:46:23;16.23;;;12.07;;
13443;SDS011;6794;59.218;18.218;2022-10-16T00:51:16;18.10;;;13.23;;
13443;SDS011;6794;59.218;18.218;2022-10-16T00:53:44;18.77;;;12.40;;
13443;SDS011;6794;59.218;18.218;2022-10-16T00:56:10;19.00;;;14.07;;
13443;SDS011;6794;59.218;18.218;2022-10-16T00:58:36;18.77;;;13.60;;
13443;SDS011;6794;59.218;18.218;2022-10-16T01:01:02;18.43;;;12.20;;
13443;SDS011;6794;59.218;18.218;2022-10-16T01:03:30;16.90;;;12.00;;
13443;SDS011;6794;59.218;18.218;2022-10-16T01:08:49;18.67;;;13.07;;
13443;SDS011;6794;59.218;18.218;2022-10-16T01:13:46;22.30;;;13.57;;
13443;SDS011;6794;59.218;18.218;2022-10-16T01:16:19;18.70;;;13.33;;
13443;SDS011;6794;59.218;18.218;2022-10-16T01:18:52;18.83;;;13.00;;
13443;SDS011;6794;59.218;18.218;2022-10-16T01:21:39;19.23;;;14.40;;
13443;SDS011;6794;59.218;18.218;2022-10-16T01:24:08;20.07;;;14.10;;
13443;SDS011;6794;59.218;18.218;2022-10-16T01:31:54;18.10;;;13.20;;
13443;SDS011;6794;59.218;18.218;2022-10-16T01:34:24;21.50;;;13.27;;
13443;SDS011;6794;59.218;18.218;2022-10-16T01:36:52;20.93;;;14.17;;
13443;SDS011;6794;59.218;18.218;2022-10-16T01:39:21;19.73;;;13.57;;
13443;SDS011;6794;59.218;18.218;2022-10-16T01:41:49;21.87;;;13.60;;
13443;SDS011;6794;59.218;18.218;2022-10-16T01:44:19;22.67;;;13.73;;
13443;SDS011;6794;59.218;18.218;2022-10-16T01:46:47;23.37;;;14.13;;
13443;SDS011;6794;59.218;18.218;2022-10-16T01:49:14;20.63;;;13.80;;
13443;SDS011;6794;59.218;18.218;2022-10-16T01:51:40;25.90;;;16.30;;
13443;SDS011;6794;59.218;18.218;2022-10-16T01:54:07;20.10;;;14.77;;
13443;SDS011;6794;59.218;18.218;2022-10-16T01:56:34;25.67;;;14.50;;
13443;SDS011;6794;59.218;18.218;2022-10-16T01:59:04;26.17;;;18.33;;
13443;SDS011;6794;59.218;18.218;2022-10-16T02:01:32;27.33;;;16.53;;
13443;SDS011;6794;59.218;18.218;2022-10-16T02:04:01;25.33;;;14.77;;
13443;SDS011;6794;59.218;18.218;2022-10-16T02:06:27;21.00;;;13.87;;
13443;SDS011;6794;59.218;18.218;2022-10-16T02:08:54;22.93;;;14.63;;
13443;SDS011;6794;59.218;18.218;2022-10-16T02:11:20;20.97;;;14.30;;
13443;SDS011;6794;59.218;18.218;2022-10-16T02:13:48;25.73;;;15.47;;
13443;SDS011;6794;59.218;18.218;2022-10-16T02:16:15;21.90;;;14.53;;
13443;SDS011;6794;59.218;18.218;2022-10-16T02:18:42;21.40;;;14.60;;
13443;SDS011;6794;59.218;18.218;2022-10-16T02:23:36;23.35;;;16.60;;
13443;SDS011;6794;59.218;18.218;2022-10-16T02:26:07;21.27;;;14.20;;
13443;SDS011;6794;59.218;18.218;2022-10-16T02:28:37;21.83;;;14.20;;
13443;SDS011;6794;59.218;18.218;2022-10-16T02:31:06;20.00;;;12.97;;
13443;SDS011;6794;59.218;18.218;2022-10-16T02:33:34;17.97;;;12.63;;
13443;SDS011;6794;59.218;18.218;2022-10-16T02:36:01;16.93;;;12.53;;
13443;SDS011;6794;59.218;18.218;2022-10-16T02:38:27;15.83;;;11.00;;
13443;SDS011;6794;59.218;18.218;2022-10-16T02:40:55;14.90;;;11.23;;
13443;SDS011;6794;59.218;18.218;2022-10-16T02:43:21;13.40;;;10.27;;
13443;SDS011;6794;59.218;18.218;2022-10-16T02:45:47;14.33;;;10.77;;
13443;SDS011;6794;59.218;18.218;2022-10-16T02:48:13;13.60;;;10.30;;
13443;SDS011;6794;59.218;18.218;2022-10-16T02:50:39;14.87;;;9.47;;
13443;SDS011;6794;59.218;18.218;2022-10-16T02:53:05;13.87;;;8.77;;
13443;SDS011;6794;59.218;18.218;2022-10-16T02:55:31;13.90;;;9.03;;
13443;SDS011;6794;59.218;18.218;2022-10-16T02:57:57;12.30;;;10.00;;
13443;SDS011;6794;59.218;18.218;2022-10-16T03:00:23;10.50;;;8.40;;
13443;SDS011;6794;59.218;18.218;2022-10-16T03:02:50;13.00;;;8.87;;
13443;SDS011;6794;59.218;18.218;2022-10-16T03:05:16;11.63;;;9.23;;
13443;SDS011;6794;59.218;18.218;2022-10-16T03:07:42;12.50;;;8.60;;
13443;SDS011;6794;59.218;18.218;2022-10-16T03:10:08;13.30;;;8.87;;
13443;SDS011;6794;59.218;18.218;2022-10-16T03:12:34;13.13;;;9.70;;
13443;SDS011;6794;59.218;18.218;2022-10-16T03:15:00;10.07;;;9.07;;
13443;SDS011;6794;59.218;18.218;2022-10-16T03:17:27;9.40;;;8.20;;
13443;SDS011;6794;59.218;18.218;2022-10-16T03:19:53;10.83;;;8.20;;
13443;SDS011;6794;59.218;18.218;2022-10-16T03:22:19;9.10;;;7.50;;
13443;SDS011;6794;59.218;18.218;2022-10-16T03:24:45;10.13;;;9.03;;
13443;SDS011;6794;59.218;18.218;2022-10-16T03:27:11;11.90;;;7.30;;
13443;SDS011;6794;59.218;18.218;2022-10-16T03:29:37;8.83;;;7.43;;
13443;SDS011;6794;59.218;18.218;2022-10-16T03:32:03;10.97;;;7.50;;
13443;SDS011;6794;59.218;18.218;2022-10-16T03:34:29;10.03;;;8.43;;
13443;SDS011;6794;59.218;18.218;2022-10-16T03:36:55;9.40;;;8.03;;
13443;SDS011;6794;59.218;18.218;2022-10-16T03:39:21;9.93;;;7.70;;
13443;SDS011;6794;59.218;18.218;2022-10-16T03:41:47;11.17;;;7.53;;
13443;SDS011;6794;59.218;18.218;2022-10-16T03:44:13;10.27;;;7.20;;
13443;SDS011;6794;59.218;18.218;2022-10-16T03:46:39;8.83;;;7.00;;
13443;SDS011;6794;59.218;18.218;2022-10-16T03:49:05;10.50;;;7.93;;
13443;SDS011;6794;59.218;18.218;2022-10-16T03:51:31;9.27;;;7.10;;
13443;SDS011;6794;59.218;18.218;2022-10-16T03:53:57;9.57;;;7.60;;
13443;SDS011;6794;59.218;18.218;2022-10-16T03:56:23;8.30;;;7.40;;
13443;SDS011;6794;59.218;18.218;2022-10-16T03:58:49;7.93;;;7.17;;
13443;SDS011;6794;59.218;18.218;2022-10-16T04:01:15;8.63;;;7.67;;
13443;SDS011;6794;59.218;18.218;2022-10-16T04:03:41;10.07;;;7.00;;
13443;SDS011;6794;59.218;18.218;2022-10-16T04:06:07;9.00;;;7.23;;
13443;SDS011;6794;59.218;18.218;2022-10-16T04:08:33;8.30;;;6.77;;
13443;SDS011;6794;59.218;18.218;2022-10-16T04:11:01;8.20;;;6.70;;
13443;SDS011;6794;59.218;18.218;2022-10-16T04:13:27;9.67;;;6.93;;
13443;SDS011;6794;59.218;18.218;2022-10-16T04:15:53;8.00;;;6.80;;
13443;SDS011;6794;59.218;18.218;2022-10-16T04:18:19;8.50;;;7.63;;
13443;SDS011;6794;59.218;18.218;2022-10-16T04:20:45;7.20;;;6.20;;
13443;SDS011;6794;59.218;18.218;2022-10-16T04:23:11;8.67;;;7.53;;
13443;SDS011;6794;59.218;18.218;2022-10-16T04:25:37;10.13;;;6.97;;
13443;SDS011;6794;59.218;18.218;2022-10-16T04:28:03;9.73;;;7.10;;
13443;SDS011;6794;59.218;18.218;2022-10-16T04:30:29;8.17;;;6.53;;
13443;SDS011;6794;59.218;18.218;2022-10-16T04:32:56;10.77;;;6.70;;
13443;SDS011;6794;59.218;18.218;2022-10-16T04:35:22;9.97;;;6.90;;
13443;SDS011;6794;59.218;18.218;2022-10-16T04:37:48;9.17;;;6.93;;
13443;SDS011;6794;59.218;18.218;2022-10-16T04:40:15;8.13;;;6.77;;
13443;SDS011;6794;59.218;18.218;2022-10-16T04:42:41;8.10;;;6.60;;
13443;SDS011;6794;59.218;18.218;2022-10-16T04:45:07;7.97;;;6.43;;
13443;SDS011;6794;59.218;18.218;2022-10-16T04:47:33;8.97;;;6.60;;
13443;SDS011;6794;59.218;18.218;2022-10-16T04:49:59;7.23;;;5.83;;
13443;SDS011;6794;59.218;18.218;2022-10-16T04:52:27;9.17;;;6.13;;
13443;SDS011;6794;59.218;18.218;2022-10-16T04:54:53;8.27;;;6.57;;
13443;SDS011;6794;59.218;18.218;2022-10-16T04:57:20;7.07;;;6.30;;
13443;SDS011;6794;59.218;18.218;2022-10-16T04:59:46;7.87;;;6.63;;
13443;SDS011;6794;59.218;18.218;2022-10-16T05:02:12;7.83;;;6.43;;
13443;SDS011;6794;59.218;18.218;2022-10-16T05:04:38;8.63;;;6.00;;
13443;SDS011;6794;59.218;18.218;2022-10-16T05:07:04;8.00;;;6.03;;
13443;SDS011;6794;59.218;18.218;2022-10-16T05:09:30;8.37;;;6.20;;
13443;SDS011;6794;59.218;18.218;2022-10-16T05:11:56;7.73;;;5.83;;
13443;SDS011;6794;59.218;18.218;2022-10-16T05:14:22;9.63;;;6.10;;
13443;SDS011;6794;59.218;18.218;2022-10-16T05:16:48;7.47;;;5.93;;
13443;SDS011;6794;59.218;18.218;2022-10-16T05:19:15;8.37;;;5.90;;
13443;SDS011;6794;59.218;18.218;2022-10-16T05:21:41;7.37;;;6.17;;
13443;SDS011;6794;59.218;18.218;2022-10-16T05:24:07;5.50;;;5.00;;
13443;SDS011;6794;59.218;18.218;2022-10-16T05:26:34;8.10;;;6.30;;
13443;SDS011;6794;59.218;18.218;2022-10-16T05:29:00;9.10;;;6.73;;
13443;SDS011;6794;59.218;18.218;2022-10-16T05:31:26;10.07;;;6.70;;
13443;SDS011;6794;59.218;18.218;2022-10-16T05:33:52;10.40;;;7.50;;
13443;SDS011;6794;59.218;18.218;2022-10-16T05:36:18;12.13;;;8.43;;
13443;SDS011;6794;59.218;18.218;2022-10-16T05:38:44;11.63;;;7.47;;
13443;SDS011;6794;59.218;18.218;2022-10-16T05:41:10;10.37;;;7.40;;
13443;SDS011;6794;59.218;18.218;2022-10-16T05:43:36;8.57;;;7.03;;
13443;SDS011;6794;59.218;18.218;2022-10-16T05:46:05;11.23;;;7.77;;
13443;SDS011;6794;59.218;18.218;2022-10-16T05:48:32;10.77;;;8.10;;
13443;SDS011;6794;59.218;18.218;2022-10-16T05:53:24;13.27;;;9.80;;
13443;SDS011;6794;59.218;18.218;2022-10-16T05:55:57;15.73;;;9.87;;
13443;SDS011;6794;59.218;18.218;2022-10-16T05:58:25;15.87;;;11.07;;
13443;SDS011;6794;59.218;18.218;2022-10-16T06:00:57;16.93;;;11.60;;
13443;SDS011;6794;59.218;18.218;2022-10-16T06:03:24;19.40;;;11.77;;
13443;SDS011;6794;59.218;18.218;2022-10-16T06:05:50;19.65;;;13.73;;
13443;SDS011;6794;59.218;18.218;2022-10-16T06:08:17;16.73;;;12.47;;
13443;SDS011;6794;59.218;18.218;2022-10-16T06:10:43;22.43;;;13.90;;
13443;SDS011;6794;59.218;18.218;2022-10-16T06:13:10;21.40;;;13.93;;
13443;SDS011;6794;59.218;18.218;2022-10-16T06:15:36;22.20;;;13.27;;
13443;SDS011;6794;59.218;18.218;2022-10-16T06:18:03;22.83;;;14.00;;
13443;SDS011;6794;59.218;18.218;2022-10-16T06:20:29;24.03;;;16.13;;
13443;SDS011;6794;59.218;18.218;2022-10-16T06:22:56;19.13;;;13.90;;
13443;SDS011;6794;59.218;18.218;2022-10-16T06:25:22;20.43;;;12.90;;
13443;SDS011;6794;59.218;18.218;2022-10-16T06:27:48;20.77;;;13.87;;
13443;SDS011;6794;59.218;18.218;2022-10-16T06:30:14;22.67;;;12.77;;
13443;SDS011;6794;59.218;18.218;2022-10-16T06:32:40;20.83;;;13.10;;
13443;SDS011;6794;59.218;18.218;2022-10-16T06:35:06;18.73;;;13.17;;
13443;SDS011;6794;59.218;18.218;2022-10-16T06:37:32;18.83;;;12.50;;
13443;SDS011;6794;59.218;18.218;2022-10-16T06:39:58;16.97;;;11.60;;
13443;SDS011;6794;59.218;18.218;2022-10-16T06:42:25;17.30;;;11.70;;
13443;SDS011;6794;59.218;18.218;2022-10-16T06:44:51;18.80;;;11.43;;
13443;SDS011;6794;59.218;18.218;2022-10-16T06:47:17;20.03;;;13.00;;
13443;SDS011;6794;59.218;18.218;2022-10-16T06:49:43;20.27;;;13.77;;
13443;SDS011;6794;59.218;18.218;2022-10-16T06:52:09;21.23;;;12.50;;
13443;SDS011;6794;59.218;18.218;2022-10-16T06:54:35;18.13;;;13.40;;
13443;SDS011;6794;59.218;18.218;2022-10-16T06:57:01;20.23;;;12.87;;
13443;SDS011;6794;59.218;18.218;2022-10-16T06:59:27;21.67;;;13.97;;
13443;SDS011;6794;59.218;18.218;2022-10-16T07:01:53;24.90;;;14.23;;
13443;SDS011;6794;59.218;18.218;2022-10-16T07:04:19;24.17;;;14.97;;
13443;SDS011;6794;59.218;18.218;2022-10-16T07:06:45;20.43;;;13.60;;
13443;SDS011;6794;59.218;18.218;2022-10-16T07:09:11;21.93;;;14.70;;
13443;SDS011;6794;59.218;18.218;2022-10-16T07:11:38;21.50;;;15.20;;
13443;SDS011;6794;59.218;18.218;2022-10-16T07:14:04;19.43;;;13.20;;
13443;SDS011;6794;59.218;18.218;2022-10-16T07:16:31;18.30;;;13.63;;
13443;SDS011;6794;59.218;18.218;2022-10-16T07:18:58;20.07;;;13.93;;
13443;SDS011;6794;59.218;18.218;2022-10-16T07:21:29;16.93;;;12.37;;
13443;SDS011;6794;59.218;18.218;2022-10-16T07:23:56;17.07;;;12.83;;
13443;SDS011;6794;59.218;18.218;2022-10-16T07:26:23;17.97;;;14.23;;
13443;SDS011;6794;59.218;18.218;2022-10-16T07:28:49;19.97;;;13.00;;
13443;SDS011;6794;59.218;18.218;2022-10-16T07:31:17;16.90;;;13.13;;
13443;SDS011;6794;59.218;18.218;2022-10-16T07:33:43;18.83;;;13.83;;
13443;SDS011;6794;59.218;18.218;2022-10-16T07:36:10;17.20;;;12.07;;
13443;SDS011;6794;59.218;18.218;2022-10-16T07:38:36;16.23;;;11.63;;
13443;SDS011;6794;59.218;18.218;2022-10-16T07:41:04;16.30;;;12.10;;
13443;SDS011;6794;59.218;18.218;2022-10-16T07:43:30;15.77;;;11.03;;
13443;SDS011;6794;59.218;18.218;2022-10-16T07:45:57;12.27;;;10.00;;
13443;SDS011;6794;59.218;18.218;2022-10-16T07:48:23;16.07;;;12.53;;
13443;SDS011;6794;59.218;18.218;2022-10-16T07:50:50;18.00;;;14.07;;
13443;SDS011;6794;59.218;18.218;2022-10-16T07:53:16;11.37;;;8.73;;
13443;SDS011;6794;59.218;18.218;2022-10-16T07:55:42;11.43;;;9.40;;
13443;SDS011;6794;59.218;18.218;2022-10-16T07:58:08;24.07;;;15.07;;
13443;SDS011;6794;59.218;18.218;2022-10-16T08:00:35;11.73;;;9.67;;
13443;SDS011;6794;59.218;18.218;2022-10-16T08:03:01;9.63;;;8.53;;
13443;SDS011;6794;59.218;18.218;2022-10-16T08:05:28;13.93;;;10.60;;
13443;SDS011;6794;59.218;18.218;2022-10-16T08:07:54;11.43;;;9.13;;
13443;SDS011;6794;59.218;18.218;2022-10-16T08:10:22;9.00;;;7.00;;
13443;SDS011;6794;59.218;18.218;2022-10-16T08:12:48;11.33;;;9.07;;
13443;SDS011;6794;59.218;18.218;2022-10-16T08:15:14;9.07;;;7.70;;
13443;SDS011;6794;59.218;18.218;2022-10-16T08:17:40;9.97;;;7.00;;
13443;SDS011;6794;59.218;18.218;2022-10-16T08:20:07;9.47;;;6.50;;
13443;SDS011;6794;59.218;18.218;2022-10-16T08:22:33;8.50;;;7.00;;
13443;SDS011;6794;59.218;18.218;2022-10-16T08:24:59;8.03;;;7.10;;
13443;SDS011;6794;59.218;18.218;2022-10-16T08:27:25;9.67;;;7.10;;
13443;SDS011;6794;59.218;18.218;2022-10-16T08:29:51;8.37;;;7.10;;
13443;SDS011;6794;59.218;18.218;2022-10-16T08:32:17;7.57;;;6.77;;
13443;SDS011;6794;59.218;18.218;2022-10-16T08:34:43;8.27;;;6.73;;
13443;SDS011;6794;59.218;18.218;2022-10-16T08:37:09;10.23;;;6.50;;
13443;SDS011;6794;59.218;18.218;2022-10-16T08:39:37;10.17;;;6.93;;
13443;SDS011;6794;59.218;18.218;2022-10-16T08:47:17;8.33;;;7.47;;
13443;SDS011;6794;59.218;18.218;2022-10-16T08:49:50;8.90;;;6.57;;
13443;SDS011;6794;59.218;18.218;2022-10-16T08:52:17;10.67;;;6.87;;
13443;SDS011;6794;59.218;18.218;2022-10-16T08:54:45;9.77;;;6.60;;
13443;SDS011;6794;59.218;18.218;2022-10-16T08:57:22;8.37;;;5.40;;
13443;SDS011;6794;59.218;18.218;2022-10-16T08:59:48;6.53;;;5.00;;
13443;SDS011;6794;59.218;18.218;2022-10-16T09:07:30;4.80;;;4.27;;
13443;SDS011;6794;59.218;18.218;2022-10-16T09:12:40;10.10;;;7.90;;
13443;SDS011;6794;59.218;18.218;2022-10-16T09:15:29;11.53;;;8.83;;
13443;SDS011;6794;59.218;18.218;2022-10-16T09:23:00;6.00;;;5.10;;
13443;SDS011;6794;59.218;18.218;2022-10-16T09:25:30;8.53;;;5.67;;
13443;SDS011;6794;59.218;18.218;2022-10-16T09:27:57;7.00;;;5.60;;
13443;SDS011;6794;59.218;18.218;2022-10-16T09:30:23;7.67;;;5.93;;
13443;SDS011;6794;59.218;18.218;2022-10-16T09:32:52;5.20;;;4.60;;
13443;SDS011;6794;59.218;18.218;2022-10-16T09:35:19;4.97;;;4.47;;
13443;SDS011;6794;59.218;18.218;2022-10-16T09:37:50;4.80;;;4.30;;
13443;SDS011;6794;59.218;18.218;2022-10-16T09:40:25;6.63;;;4.93;;
13443;SDS011;6794;59.218;18.218;2022-10-16T09:42:53;6.07;;;4.77;;
13443;SDS011;6794;59.218;18.218;2022-10-16T09:45:23;7.93;;;4.67;;
13443;SDS011;6794;59.218;18.218;2022-10-16T09:47:49;7.63;;;4.77;;
13443;SDS011;6794;59.218;18.218;2022-10-16T09:50:22;5.27;;;4.77;;
13443;SDS011;6794;59.218;18.218;2022-10-16T09:52:50;6.40;;;4.97;;
13443;SDS011;6794;59.218;18.218;2022-10-16T09:55:17;6.10;;;3.50;;
13443;SDS011;6794;59.218;18.218;2022-10-16T09:57:52;5.77;;;4.20;;
13443;SDS011;6794;59.218;18.218;2022-10-16T10:00:19;7.73;;;4.50;;
13443;SDS011;6794;59.218;18.218;2022-10-16T10:02:45;5.43;;;3.80;;
13443;SDS011;6794;59.218;18.218;2022-10-16T10:05:18;7.47;;;5.40;;
13443;SDS011;6794;59.218;18.218;2022-10-16T10:07:52;7.60;;;5.90;;
13443;SDS011;6794;59.218;18.218;2022-10-16T10:10:20;7.60;;;5.87;;
13443;SDS011;6794;59.218;18.218;2022-10-16T10:12:46;6.63;;;5.20;;
13443;SDS011;6794;59.218;18.218;2022-10-16T10:15:13;7.53;;;4.93;;
13443;SDS011;6794;59.218;18.218;2022-10-16T10:17:47;7.43;;;5.73;;
13443;SDS011;6794;59.218;18.218;2022-10-16T10:20:35;6.50;;;4.13;;
13443;SDS011;6794;59.218;18.218;2022-10-16T10:23:23;4.20;;;3.30;;
13443;SDS011;6794;59.218;18.218;2022-10-16T10:25:51;3.97;;;3.43;;
13443;SDS011;6794;59.218;18.218;2022-10-16T10:33:28;4.10;;;3.07;;
13443;SDS011;6794;59.218;18.218;2022-10-16T10:38:33;3.60;;;2.90;;
13443;SDS011;6794;59.218;18.218;2022-10-16T10:44:01;4.73;;;3.27;;
13443;SDS011;6794;59.218;18.218;2022-10-16T10:46:36;5.47;;;3.40;;
13443;SDS011;6794;59.218;18.218;2022-10-16T10:49:20;3.67;;;2.53;;
13443;SDS011;6794;59.218;18.218;2022-10-16T10:54:19;50.93;;;25.03;;
13443;SDS011;6794;59.218;18.218;2022-10-16T10:56:52;103.77;;;51.30;;
13443;SDS011;6794;59.218;18.218;2022-10-16T11:01:54;80.37;;;43.40;;
13443;SDS011;6794;59.218;18.218;2022-10-16T11:07:04;15.73;;;6.47;;
13443;SDS011;6794;59.218;18.218;2022-10-16T11:09:32;5.77;;;3.90;;
13443;SDS011;6794;59.218;18.218;2022-10-16T11:12:00;5.70;;;3.27;;
13443;SDS011;6794;59.218;18.218;2022-10-16T11:14:31;7.77;;;5.07;;
13443;SDS011;6794;59.218;18.218;2022-10-16T11:17:13;10.27;;;5.90;;
13443;SDS011;6794;59.218;18.218;2022-10-16T11:19:42;5.80;;;4.57;;
13443;SDS011;6794;59.218;18.218;2022-10-16T11:24:42;31.67;;;10.80;;
13443;SDS011;6794;59.218;18.218;2022-10-16T11:27:12;13.80;;;6.70;;
13443;SDS011;6794;59.218;18.218;2022-10-16T11:29:43;5.38;;;3.47;;
13443;SDS011;6794;59.218;18.218;2022-10-16T11:32:15;8.20;;;3.57;;
13443;SDS011;6794;59.218;18.218;2022-10-16T11:34:47;5.37;;;3.40;;
13443;SDS011;6794;59.218;18.218;2022-10-16T11:37:18;5.07;;;3.42;;
13443;SDS011;6794;59.218;18.218;2022-10-16T11:39:46;4.53;;;3.22;;
13443;SDS011;6794;59.218;18.218;2022-10-16T11:42:21;8.50;;;3.78;;
13443;SDS011;6794;59.218;18.218;2022-10-16T11:44:51;3.97;;;2.80;;
13443;SDS011;6794;59.218;18.218;2022-10-16T11:49:49;4.57;;;3.33;;
13443;SDS011;6794;59.218;18.218;2022-10-16T11:54:56;8.07;;;4.87;;
13443;SDS011;6794;59.218;18.218;2022-10-16T11:57:28;4.60;;;3.60;;
13443;SDS011;6794;59.218;18.218;2022-10-16T11:59:55;7.85;;;3.95;;
13443;SDS011;6794;59.218;18.218;2022-10-16T12:02:28;5.97;;;3.50;;
13443;SDS011;6794;59.218;18.218;2022-10-16T12:05:01;6.50;;;4.50;;
13443;SDS011;6794;59.218;18.218;2022-10-16T12:07:35;6.07;;;4.10;;
13443;SDS011;6794;59.218;18.218;2022-10-16T12:12:47;6.23;;;4.10;;
13443;SDS011;6794;59.218;18.218;2022-10-16T12:15:26;7.20;;;5.03;;
13443;SDS011;6794;59.218;18.218;2022-10-16T12:17:53;5.93;;;4.00;;
13443;SDS011;6794;59.218;18.218;2022-10-16T12:20:24;5.63;;;4.00;;
13443;SDS011;6794;59.218;18.218;2022-10-16T12:22:58;4.70;;;3.60;;
13443;SDS011;6794;59.218;18.218;2022-10-16T12:27:57;3.77;;;3.00;;
13443;SDS011;6794;59.218;18.218;2022-10-16T12:30:23;3.40;;;2.80;;
13443;SDS011;6794;59.218;18.218;2022-10-16T12:32:57;3.07;;;2.70;;
13443;SDS011;6794;59.218;18.218;2022-10-16T12:35:25;4.97;;;3.00;;
13443;SDS011;6794;59.218;18.218;2022-10-16T12:37:52;5.37;;;2.83;;
13443;SDS011;6794;59.218;18.218;2022-10-16T12:42:53;5.33;;;3.37;;
13443;SDS011;6794;59.218;18.218;2022-10-16T12:47:52;4.00;;;3.00;;
13443;SDS011;6794;59.218;18.218;2022-10-16T12:50:37;5.83;;;3.03;;
13443;SDS011;6794;59.218;18.218;2022-10-16T12:53:24;4.87;;;2.83;;
13443;SDS011;6794;59.218;18.218;2022-10-16T13:10:41;3.50;;;2.13;;
13443;SDS011;6794;59.218;18.218;2022-10-16T13:16:01;3.07;;;2.10;;
13443;SDS011;6794;59.218;18.218;2022-10-16T13:21:18;2.97;;;2.30;;
13443;SDS011;6794;59.218;18.218;2022-10-16T13:26:30;4.73;;;2.10;;
13443;SDS011;6794;59.218;18.218;2022-10-16T13:29:00;2.47;;;2.20;;
13443;SDS011;6794;59.218;18.218;2022-10-16T13:31:27;5.27;;;2.73;;
13443;SDS011;6794;59.218;18.218;2022-10-16T13:33:54;3.60;;;2.10;;
13443;SDS011;6794;59.218;18.218;2022-10-16T13:36:34;5.23;;;2.40;;
13443;SDS011;6794;59.218;18.218;2022-10-16T13:39:10;5.67;;;2.80;;
13443;SDS011;6794;59.218;18.218;2022-10-16T13:41:36;5.07;;;2.97;;
13443;SDS011;6794;59.218;18.218;2022-10-16T13:44:02;6.27;;;3.87;;
13443;SDS011;6794;59.218;18.218;2022-10-16T13:46:29;5.83;;;4.10;;
13443;SDS011;6794;59.218;18.218;2022-10-16T13:49:10;6.00;;;3.97;;
13443;SDS011;6794;59.218;18.218;2022-10-16T13:51:37;5.57;;;2.70;;
13443;SDS011;6794;59.218;18.218;2022-10-16T13:54:03;5.90;;;3.10;;
13443;SDS011;6794;59.218;18.218;2022-10-16T13:56:30;2.93;;;2.00;;
13443;SDS011;6794;59.218;18.218;2022-10-16T13:59:00;2.70;;;2.07;;
13443;SDS011;6794;59.218;18.218;2022-10-16T14:01:31;3.27;;;2.07;;
13443;SDS011;6794;59.218;18.218;2022-10-16T14:04:05;6.17;;;2.40;;
13443;SDS011;6794;59.218;18.218;2022-10-16T14:06:32;2.53;;;1.90;;
13443;SDS011;6794;59.218;18.218;2022-10-16T14:09:05;4.73;;;1.70;;
13443;SDS011;6794;59.218;18.218;2022-10-16T14:11:31;3.90;;;1.90;;
13443;SDS011;6794;59.218;18.218;2022-10-16T14:13:58;7.10;;;2.20;;
13443;SDS011;6794;59.218;18.218;2022-10-16T14:16:25;3.53;;;1.87;;
13443;SDS011;6794;59.218;18.218;2022-10-16T14:21:24;3.83;;;2.07;;
13443;SDS011;6794;59.218;18.218;2022-10-16T14:23:51;4.57;;;1.90;;
13443;SDS011;6794;59.218;18.218;2022-10-16T14:26:19;3.67;;;1.90;;
13443;SDS011;6794;59.218;18.218;2022-10-16T14:28:46;2.33;;;1.70;;
13443;SDS011;6794;59.218;18.218;2022-10-16T14:33:45;6.07;;;2.23;;
13443;SDS011;6794;59.218;18.218;2022-10-16T14:36:15;4.73;;;2.50;;
13443;SDS011;6794;59.218;18.218;2022-10-16T14:38:48;3.83;;;2.57;;
13443;SDS011;6794;59.218;18.218;2022-10-16T14:41:15;4.07;;;2.00;;
13443;SDS011;6794;59.218;18.218;2022-10-16T14:43:42;4.73;;;2.50;;
13443;SDS011;6794;59.218;18.218;2022-10-16T14:46:16;4.53;;;2.27;;
13443;SDS011;6794;59.218;18.218;2022-10-16T14:48:43;6.50;;;2.37;;
13443;SDS011;6794;59.218;18.218;2022-10-16T14:51:15;6.00;;;2.37;;
13443;SDS011;6794;59.218;18.218;2022-10-16T14:53:41;5.20;;;2.03;;
13443;SDS011;6794;59.218;18.218;2022-10-16T14:56:07;3.03;;;1.93;;
13443;SDS011;6794;59.218;18.218;2022-10-16T14:58:34;3.23;;;2.07;;
13443;SDS011;6794;59.218;18.218;2022-10-16T15:01:00;6.50;;;2.90;;
13443;SDS011;6794;59.218;18.218;2022-10-16T15:03:26;4.53;;;2.53;;
13443;SDS011;6794;59.218;18.218;2022-10-16T15:05:52;3.63;;;2.37;;
13443;SDS011;6794;59.218;18.218;2022-10-16T15:08:19;4.17;;;2.30;;
13443;SDS011;6794;59.218;18.218;2022-10-16T15:10:45;6.93;;;2.53;;
13443;SDS011;6794;59.218;18.218;2022-10-16T15:13:11;4.63;;;2.37;;
13443;SDS011;6794;59.218;18.218;2022-10-16T15:15:42;4.43;;;2.40;;
13443;SDS011;6794;59.218;18.218;2022-10-16T15:18:08;5.00;;;2.30;;
13443;SDS011;6794;59.218;18.218;2022-10-16T15:20:35;3.80;;;2.47;;
13443;SDS011;6794;59.218;18.218;2022-10-16T15:23:02;5.40;;;2.63;;
13443;SDS011;6794;59.218;18.218;2022-10-16T15:25:48;5.13;;;2.50;;
13443;SDS011;6794;59.218;18.218;2022-10-16T15:28:14;3.67;;;2.33;;
13443;SDS011;6794;59.218;18.218;2022-10-16T15:30:41;2.63;;;2.37;;
13443;SDS011;6794;59.218;18.218;2022-10-16T15:33:11;5.70;;;2.50;;
13443;SDS011;6794;59.218;18.218;2022-10-16T15:35:38;6.17;;;3.00;;
13443;SDS011;6794;59.218;18.218;2022-10-16T15:38:04;4.93;;;2.37;;
13443;SDS011;6794;59.218;18.218;2022-10-16T15:40:30;5.57;;;2.60;;
13443;SDS011;6794;59.218;18.218;2022-10-16T15:42:56;2.70;;;1.40;;
13443;SDS011;6794;59.218;18.218;2022-10-16T15:45:22;3.10;;;1.23;;
13443;SDS011;6794;59.218;18.218;2022-10-16T15:47:48;7.40;;;1.63;;
13443;SDS011;6794;59.218;18.218;2022-10-16T15:50:18;1.60;;;1.00;;
13443;SDS011;6794;59.218;18.218;2022-10-16T15:52:44;3.22;;;1.10;;
13443;SDS011;6794;59.218;18.218;2022-10-16T15:55:11;2.55;;;1.13;;
13443;SDS011;6794;59.218;18.218;2022-10-16T15:57:38;2.22;;;1.13;;
13443;SDS011;6794;59.218;18.218;2022-10-16T16:00:09;1.23;;;0.97;;
13443;SDS011;6794;59.218;18.218;2022-10-16T16:02:36;3.85;;;1.13;;
13443;SDS011;6794;59.218;18.218;2022-10-16T16:05:02;2.83;;;1.20;;
13443;SDS011;6794;59.218;18.218;2022-10-16T16:07:32;3.42;;;1.40;;
13443;SDS011;6794;59.218;18.218;2022-10-16T16:09:58;3.58;;;0.95;;
13443;SDS011;6794;59.218;18.218;2022-10-16T16:12:24;1.85;;;0.93;;
13443;SDS011;6794;59.218;18.218;2022-10-16T16:14:50;1.87;;;1.10;;
13443;SDS011;6794;59.218;18.218;2022-10-16T16:17:16;1.07;;;0.97;;
13443;SDS011;6794;59.218;18.218;2022-10-16T16:19:42;2.20;;;1.13;;
13443;SDS011;6794;59.218;18.218;2022-10-16T16:22:08;1.60;;;1.10;;
13443;SDS011;6794;59.218;18.218;2022-10-16T16:24:34;2.50;;;1.20;;